createdAt,value
2023-04-12T00:00:11.482Z,2.07
2023-04-12T00:02:40.603Z,2.50
2023-04-12T00:05:09.880Z,1.83
2023-04-12T00:07:39.392Z,1.53
2023-04-12T00:10:09.552Z,1.50
2023-04-12T00:12:41.045Z,1.40
2023-04-12T00:15:10.545Z,2.07
2023-04-12T00:17:38.932Z,1.80
2023-04-12T00:20:12.363Z,1.90
2023-04-12T00:22:41.616Z,2.00
2023-04-12T00:25:10.394Z,1.90
2023-04-12T00:27:40.807Z,1.80
2023-04-12T00:30:09.885Z,1.77
2023-04-12T00:32:38.062Z,1.80
2023-04-12T00:35:07.099Z,2.03
2023-04-12T00:37:36.455Z,1.77
2023-04-12T00:40:07.165Z,1.80
2023-04-12T00:42:35.694Z,1.60
2023-04-12T00:45:07.067Z,2.07
2023-04-12T00:47:37.140Z,2.00
2023-04-12T00:50:07.174Z,1.70
2023-04-12T00:52:35.662Z,1.70
2023-04-12T00:55:05.659Z,2.20
2023-04-12T00:57:37.209Z,1.70
2023-04-12T01:00:08.365Z,2.10
2023-04-12T01:02:39.474Z,1.70
2023-04-12T01:05:09.558Z,1.83
2023-04-12T01:07:45.192Z,2.17
2023-04-12T01:10:25.778Z,2.00
2023-04-12T01:13:01.726Z,2.07
2023-04-12T01:15:35.899Z,2.07
2023-04-12T01:18:09.937Z,2.10
2023-04-12T01:20:45.087Z,1.93
2023-04-12T01:23:43.141Z,1.80
2023-04-12T01:26:23.104Z,1.77
2023-04-12T01:28:55.364Z,2.00
2023-04-12T01:31:26.179Z,2.23
2023-04-12T01:33:56.205Z,2.27
2023-04-12T01:36:26.460Z,2.10
2023-04-12T01:38:56.200Z,1.70
2023-04-12T01:41:24.646Z,2.00
2023-04-12T01:43:54.124Z,2.30
2023-04-12T01:46:25.067Z,2.13
2023-04-12T01:48:54.925Z,1.90
2023-04-12T01:51:36.160Z,2.90
2023-04-12T01:54:11.739Z,2.00
2023-04-12T01:56:42.930Z,2.10
2023-04-12T01:59:15.705Z,1.73
2023-04-12T02:01:45.230Z,1.70
2023-04-12T02:04:14.226Z,2.00
2023-04-12T02:06:43.766Z,1.97
2023-04-12T02:09:11.874Z,2.23
2023-04-12T02:11:39.965Z,2.00
2023-04-12T02:14:08.250Z,2.10
2023-04-12T02:16:37.980Z,2.47
2023-04-12T02:19:08.522Z,2.27
2023-04-12T02:21:42.457Z,2.00
2023-04-12T02:24:10.812Z,2.20
2023-04-12T02:26:39.104Z,2.03
2023-04-12T02:29:10.426Z,2.40
2023-04-12T02:31:40.075Z,1.97
2023-04-12T02:34:08.452Z,2.07
2023-04-12T02:36:38.143Z,1.93
2023-04-12T02:39:06.684Z,1.90
2023-04-12T02:41:34.885Z,1.70
2023-04-12T02:44:03.651Z,2.00
2023-04-12T02:46:32.156Z,2.20
2023-04-12T02:49:02.038Z,1.97
2023-04-12T02:51:30.135Z,2.00
2023-04-12T02:53:58.441Z,1.90
2023-04-12T02:56:26.625Z,2.10
2023-04-12T02:58:54.849Z,1.83
2023-04-12T03:01:24.066Z,1.90
2023-04-12T03:03:52.305Z,1.80
2023-04-12T03:06:21.923Z,2.10
2023-04-12T03:08:49.929Z,2.47
2023-04-12T03:11:18.263Z,2.13
2023-04-12T03:13:46.441Z,2.40
2023-04-12T03:16:25.013Z,2.73
2023-04-12T03:18:53.187Z,2.30
2023-04-12T03:21:22.682Z,2.23
2023-04-12T03:23:51.302Z,2.37
2023-04-12T03:26:20.690Z,2.30
2023-04-12T03:28:49.592Z,2.90
2023-04-12T03:31:21.779Z,2.73
2023-04-12T03:33:50.136Z,2.80
2023-04-12T03:36:18.623Z,2.67
2023-04-12T03:38:48.157Z,2.87
2023-04-12T03:41:17.125Z,3.03
2023-04-12T03:43:45.244Z,2.87
2023-04-12T03:46:15.621Z,2.60
2023-04-12T03:48:44.020Z,2.50
2023-04-12T03:51:12.359Z,2.73
2023-04-12T03:53:40.945Z,3.13
2023-04-12T03:56:12.671Z,3.17
2023-04-12T03:58:41.079Z,3.03
2023-04-12T04:01:09.444Z,3.23
2023-04-12T04:03:38.033Z,3.37
2023-04-12T04:06:07.467Z,3.97
2023-04-12T04:08:35.686Z,3.40
2023-04-12T04:11:04.024Z,4.67
2023-04-12T04:13:33.672Z,4.80
2023-04-12T04:16:05.254Z,4.20
2023-04-12T04:18:36.014Z,4.37
2023-04-12T04:21:04.581Z,4.60
2023-04-12T04:23:39.305Z,4.30
2023-04-12T04:26:10.775Z,4.43
2023-04-12T04:28:45.614Z,5.10
2023-04-12T04:31:17.733Z,4.37
2023-04-12T04:33:46.341Z,3.77
2023-04-12T04:36:15.943Z,4.40
2023-04-12T04:38:44.105Z,4.27
2023-04-12T04:41:12.461Z,3.47
2023-04-12T04:43:42.924Z,3.73
2023-04-12T04:46:12.465Z,3.40
2023-04-12T04:48:41.014Z,3.37
2023-04-12T04:51:09.168Z,3.57
2023-04-12T04:53:37.474Z,3.67
2023-04-12T04:56:06.096Z,3.53
2023-04-12T04:58:34.411Z,3.33
2023-04-12T05:01:05.476Z,3.67
2023-04-12T05:03:34.386Z,3.30
2023-04-12T05:06:03.614Z,3.93
2023-04-12T05:08:33.262Z,3.80
2023-04-12T05:11:01.585Z,4.07
2023-04-12T05:13:31.272Z,4.23
2023-04-12T05:15:59.364Z,3.40
2023-04-12T05:18:28.894Z,4.43
2023-04-12T05:20:56.892Z,3.30
2023-04-12T05:23:25.261Z,3.07
2023-04-12T05:25:53.720Z,3.23
2023-04-12T05:28:22.095Z,3.30
2023-04-12T05:30:50.169Z,3.10
2023-04-12T05:33:18.244Z,2.80
2023-04-12T05:35:47.713Z,3.37
2023-04-12T05:38:16.002Z,2.80
2023-04-12T05:40:45.151Z,2.63
2023-04-12T05:43:13.864Z,2.73
2023-04-12T05:45:42.778Z,2.77
2023-04-12T05:48:11.131Z,2.80
2023-04-12T05:50:39.420Z,2.60
2023-04-12T05:53:10.727Z,2.80
2023-04-12T05:55:40.534Z,2.70
2023-04-12T05:58:08.555Z,3.00
2023-04-12T06:00:37.598Z,2.60
2023-04-12T06:03:05.847Z,2.67
2023-04-12T06:05:35.734Z,2.87
2023-04-12T06:08:05.491Z,2.77
2023-04-12T06:10:35.558Z,2.70
2023-04-12T06:13:03.653Z,2.80
2023-04-12T06:15:33.628Z,2.37
2023-04-12T06:18:02.606Z,2.60
2023-04-12T06:20:30.793Z,2.47
2023-04-12T06:22:58.889Z,2.73
2023-04-12T06:25:27.213Z,2.50
2023-04-12T06:27:56.934Z,2.67
2023-04-12T06:30:25.174Z,2.80
2023-04-12T06:32:53.693Z,2.43
2023-04-12T06:35:22.672Z,2.80
2023-04-12T06:37:50.833Z,2.40
2023-04-12T06:40:19.618Z,2.77
2023-04-12T06:42:48.202Z,2.70
2023-04-12T06:45:17.816Z,2.50
2023-04-12T06:47:45.977Z,2.30
2023-04-12T06:50:14.136Z,2.70
2023-04-12T06:52:42.322Z,2.80
2023-04-12T06:55:11.089Z,2.70
2023-04-12T06:57:39.228Z,2.20
2023-04-12T07:00:09.234Z,2.40
2023-04-12T07:02:39.538Z,2.27
2023-04-12T07:05:08.591Z,2.60
2023-04-12T07:07:36.735Z,2.50
2023-04-12T07:10:05.643Z,2.40
2023-04-12T07:12:33.784Z,2.40
2023-04-12T07:15:01.938Z,2.40
2023-04-12T07:17:32.419Z,2.27
2023-04-12T07:20:02.573Z,2.37
2023-04-12T07:22:30.574Z,2.30
2023-04-12T07:24:58.912Z,2.30
2023-04-12T07:27:27.214Z,2.53
2023-04-12T07:29:55.664Z,2.20
2023-04-12T07:32:24.734Z,2.03
2023-04-12T07:34:53.253Z,2.40
2023-04-12T07:37:22.902Z,2.37
2023-04-12T07:39:51.417Z,2.20
2023-04-12T07:42:20.131Z,1.90
2023-04-12T07:44:48.333Z,2.00
2023-04-12T07:47:16.657Z,2.50
2023-04-12T07:49:44.750Z,2.43
2023-04-12T07:52:12.838Z,2.30
2023-04-12T07:54:43.090Z,2.00
2023-04-12T07:57:11.525Z,1.90
2023-04-12T07:59:39.593Z,1.80
2023-04-12T08:02:08.786Z,1.90
2023-04-12T08:04:36.985Z,2.20
2023-04-12T08:07:05.145Z,2.07
2023-04-12T08:09:35.258Z,2.20
2023-04-12T08:12:05.358Z,2.40
2023-04-12T08:14:33.649Z,2.27
2023-04-12T08:17:02.076Z,2.40
2023-04-12T08:19:30.525Z,2.17
2023-04-12T08:21:58.944Z,1.67
2023-04-12T08:24:27.200Z,1.80
2023-04-12T08:26:56.283Z,2.00
2023-04-12T08:29:25.972Z,1.67
2023-04-12T08:31:56.507Z,1.90
2023-04-12T08:34:25.182Z,1.80
2023-04-12T08:36:54.944Z,1.80
2023-04-12T08:39:23.392Z,1.97
2023-04-12T08:41:53.245Z,2.00
2023-04-12T08:44:34.130Z,1.77
2023-04-12T08:47:05.361Z,1.57
2023-04-12T08:49:36.382Z,1.77
2023-04-12T08:52:06.895Z,1.90
2023-04-12T08:54:37.276Z,1.70
2023-04-12T08:57:06.981Z,2.00
2023-04-12T08:59:39.621Z,1.63
2023-04-12T09:02:09.889Z,2.10
2023-04-12T09:04:51.226Z,1.73
2023-04-12T09:07:20.030Z,1.80
2023-04-12T09:09:49.398Z,1.87
2023-04-12T09:12:20.183Z,1.90
2023-04-12T09:14:48.817Z,1.60
2023-04-12T09:17:26.597Z,1.80
2023-04-12T09:19:56.538Z,2.00
2023-04-12T09:22:36.178Z,1.73
2023-04-12T09:25:04.851Z,1.60
2023-04-12T09:27:47.900Z,1.70
2023-04-12T09:30:18.301Z,2.00
2023-04-12T09:32:49.757Z,1.87
2023-04-12T09:35:18.014Z,2.07
2023-04-12T09:37:46.499Z,1.80
2023-04-12T09:40:15.992Z,1.90
2023-04-12T09:42:53.615Z,2.00
2023-04-12T09:45:24.536Z,1.90
2023-04-12T09:47:56.956Z,2.20
2023-04-12T09:50:26.774Z,2.10
2023-04-12T09:52:55.756Z,2.07
2023-04-12T09:55:25.848Z,2.10
2023-04-12T09:57:56.769Z,2.10
2023-04-12T10:00:27.265Z,2.00
2023-04-12T10:02:59.271Z,1.97
2023-04-12T10:05:28.491Z,2.27
2023-04-12T10:07:58.553Z,2.20
2023-04-12T10:10:27.461Z,2.27
2023-04-12T10:12:56.057Z,2.10
2023-04-12T10:15:25.703Z,2.10
2023-04-12T10:17:54.986Z,2.10
2023-04-12T10:20:29.020Z,2.17
2023-04-12T10:22:59.561Z,1.90
2023-04-12T10:25:31.130Z,2.07
2023-04-12T10:28:14.073Z,2.20
2023-04-12T10:30:42.511Z,2.27
2023-04-12T10:33:16.911Z,2.37
2023-04-12T10:35:56.454Z,2.33
2023-04-12T10:38:27.409Z,2.77
2023-04-12T10:41:15.497Z,2.77
2023-04-12T10:43:44.080Z,2.73
2023-04-12T10:46:48.708Z,3.20
2023-04-12T10:49:17.956Z,3.10
2023-04-12T10:52:21.262Z,3.23
2023-04-12T10:54:51.100Z,3.87
2023-04-12T10:57:47.422Z,3.87
2023-04-12T11:00:17.161Z,3.63
2023-04-12T11:03:13.155Z,3.60
2023-04-12T11:06:16.325Z,3.50
2023-04-12T11:08:56.624Z,3.50
2023-04-12T11:11:27.687Z,3.80
2023-04-12T11:13:59.753Z,4.00
2023-04-12T11:16:28.190Z,4.43
2023-04-12T11:18:57.179Z,4.30
2023-04-12T11:21:27.123Z,3.70
2023-04-12T11:23:58.293Z,4.03
2023-04-12T11:26:33.855Z,4.50
2023-04-12T11:29:08.777Z,4.50
2023-04-12T11:31:39.688Z,4.23
2023-04-12T11:34:07.836Z,4.23
2023-04-12T11:36:36.023Z,4.50
2023-04-12T11:39:05.686Z,4.67
2023-04-12T11:41:33.991Z,4.50
2023-04-12T11:44:07.165Z,3.97
2023-04-12T11:46:35.810Z,4.90
2023-04-12T11:49:03.990Z,4.63
2023-04-12T11:51:33.928Z,4.10
2023-04-12T11:54:02.427Z,4.23
2023-04-12T11:56:33.117Z,5.33
2023-04-12T11:59:01.880Z,4.40
2023-04-12T12:01:35.807Z,4.87
2023-04-12T12:04:04.451Z,4.80
2023-04-12T12:06:33.776Z,4.83
2023-04-12T12:09:04.040Z,4.50
2023-04-12T12:11:33.897Z,4.17
2023-04-12T12:14:02.279Z,4.40
2023-04-12T12:16:32.302Z,4.40
2023-04-12T12:19:05.728Z,4.30
2023-04-12T12:21:34.418Z,5.13
2023-04-12T12:24:04.155Z,4.20
2023-04-12T12:26:33.989Z,5.23
2023-04-12T12:29:02.331Z,4.43
2023-04-12T12:31:31.429Z,4.53
2023-04-12T12:34:05.013Z,4.80
2023-04-12T12:36:39.085Z,5.27
2023-04-12T12:39:10.972Z,5.40
2023-04-12T12:41:42.294Z,4.90
2023-04-12T12:44:11.544Z,4.93
2023-04-12T12:46:53.471Z,4.70
2023-04-12T12:49:24.031Z,6.07
2023-04-12T12:51:54.044Z,5.33
2023-04-12T12:54:39.536Z,5.07
2023-04-12T12:57:11.150Z,5.27
2023-04-12T12:59:39.816Z,5.83
2023-04-12T13:02:09.011Z,5.67
2023-04-12T13:04:37.822Z,5.37
2023-04-12T13:07:06.542Z,5.67
2023-04-12T13:09:34.775Z,5.40
2023-04-12T13:12:03.491Z,5.50
2023-04-12T13:14:33.282Z,5.53
2023-04-12T13:17:01.995Z,5.93
2023-04-12T13:19:31.297Z,6.10
2023-04-12T13:21:59.779Z,5.13
2023-04-12T13:24:28.251Z,5.60
2023-04-12T13:26:58.494Z,5.57
2023-04-12T13:29:27.016Z,5.07
2023-04-12T13:31:56.839Z,5.13
2023-04-12T13:34:24.989Z,4.47
2023-04-12T13:36:53.366Z,3.90
2023-04-12T13:39:22.002Z,4.27
2023-04-12T13:41:50.398Z,4.07
2023-04-12T13:44:18.719Z,4.10
2023-04-12T13:46:48.028Z,4.40
2023-04-12T13:49:17.514Z,4.50
2023-04-12T13:51:45.850Z,4.30
2023-04-12T13:54:15.620Z,3.80
2023-04-12T13:56:44.048Z,3.60
2023-04-12T13:59:12.518Z,3.97
2023-04-12T14:01:40.762Z,3.57
2023-04-12T14:04:11.042Z,4.07
2023-04-12T14:06:41.181Z,3.17
2023-04-12T14:09:09.701Z,3.07
2023-04-12T14:11:48.337Z,2.80
2023-04-12T14:14:17.137Z,2.40
2023-04-12T14:16:46.039Z,3.50
2023-04-12T14:19:14.171Z,2.77
2023-04-12T14:21:44.018Z,3.40
2023-04-12T14:24:12.717Z,2.87
2023-04-12T14:26:41.425Z,2.97
2023-04-12T14:29:09.778Z,3.10
2023-04-12T14:31:38.229Z,3.30
2023-04-12T14:34:08.973Z,3.20
2023-04-12T14:36:37.312Z,2.93
2023-04-12T14:39:10.236Z,3.37
2023-04-12T14:41:40.103Z,2.90
2023-04-12T14:44:09.901Z,2.30
2023-04-12T14:46:38.369Z,2.27
2023-04-12T14:49:07.147Z,2.20
2023-04-12T14:51:35.543Z,2.33
2023-04-12T14:54:03.568Z,2.50
2023-04-12T14:56:38.309Z,2.30
2023-04-12T14:59:09.354Z,3.60
2023-04-12T15:01:38.283Z,4.67
2023-04-12T15:04:07.554Z,5.33
2023-04-12T15:06:37.478Z,3.50
2023-04-12T15:09:06.569Z,4.10
2023-04-12T15:11:38.657Z,4.57
2023-04-12T15:14:07.556Z,5.30
2023-04-12T15:16:36.240Z,2.50
2023-04-12T15:19:11.473Z,2.77
2023-04-12T15:21:46.846Z,2.00
2023-04-12T15:24:15.164Z,0.70
2023-04-12T15:26:44.993Z,0.40
2023-04-12T15:29:13.568Z,0.60
2023-04-12T15:31:42.158Z,0.57
2023-04-12T15:34:13.479Z,0.40
2023-04-12T15:36:43.359Z,0.50
2023-04-12T15:39:15.257Z,0.50
2023-04-12T15:41:45.226Z,0.50
2023-04-12T15:44:14.201Z,1.80
2023-04-12T15:46:42.993Z,0.60
2023-04-12T15:49:11.712Z,0.60
2023-04-12T15:51:40.063Z,0.80
2023-04-12T15:54:10.698Z,0.60
2023-04-12T15:56:39.941Z,1.03
2023-04-12T15:59:11.470Z,0.90
2023-04-12T16:01:40.162Z,0.90
2023-04-12T16:04:08.756Z,0.60
2023-04-12T16:06:38.380Z,0.53
2023-04-12T16:09:07.376Z,0.70
2023-04-12T16:11:35.674Z,1.30
2023-04-12T16:14:03.982Z,1.20
2023-04-12T16:16:33.616Z,10.00
2023-04-12T16:19:02.068Z,9.20
2023-04-12T16:21:30.440Z,2.50
2023-04-12T16:23:58.907Z,2.10
2023-04-12T16:26:27.371Z,6.73
2023-04-12T16:28:55.654Z,4.90
2023-04-12T16:31:25.611Z,4.07
2023-04-12T16:33:55.558Z,2.73
2023-04-12T16:36:25.669Z,2.40
2023-04-12T16:38:55.399Z,4.57
2023-04-12T16:41:23.948Z,2.17
2023-04-12T16:43:53.980Z,1.77
2023-04-12T16:46:23.047Z,0.70
2023-04-12T16:48:51.183Z,0.60
2023-04-12T16:51:21.258Z,0.70
2023-04-12T16:53:49.456Z,0.90
2023-04-12T16:56:18.618Z,0.90
2023-04-12T16:58:48.907Z,1.30
2023-04-12T17:01:17.742Z,2.73
2023-04-12T17:03:47.197Z,2.03
2023-04-12T17:06:15.608Z,2.40
2023-04-12T17:08:46.444Z,0.73
2023-04-12T17:11:15.343Z,2.93
2023-04-12T17:13:44.880Z,1.50
2023-04-12T17:16:16.278Z,1.97
2023-04-12T17:18:44.794Z,3.23
2023-04-12T17:21:17.095Z,2.00
2023-04-12T17:23:47.500Z,1.30
2023-04-12T17:26:16.061Z,1.77
2023-04-12T17:28:44.097Z,2.60
2023-04-12T17:31:12.561Z,1.00
2023-04-12T17:33:40.857Z,1.20
2023-04-12T17:36:11.832Z,1.00
2023-04-12T17:38:40.247Z,0.90
2023-04-12T17:41:10.614Z,0.80
2023-04-12T17:43:39.153Z,0.80
2023-04-12T17:46:07.503Z,1.70
2023-04-12T17:48:36.008Z,3.03
2023-04-12T17:51:05.576Z,1.73
2023-04-12T17:53:33.784Z,1.20
2023-04-12T17:56:02.288Z,2.47
2023-04-12T17:58:33.008Z,9.33
2023-04-12T18:01:03.088Z,12.20
2023-04-12T18:03:31.975Z,1.10
2023-04-12T18:06:00.901Z,2.10
2023-04-12T18:08:29.258Z,1.23
2023-04-12T18:10:57.900Z,0.87
2023-04-12T18:13:26.322Z,1.03
2023-04-12T18:15:55.807Z,0.83
2023-04-12T18:18:23.945Z,0.80
2023-04-12T18:20:52.042Z,0.90
2023-04-12T18:23:20.298Z,1.00
2023-04-12T18:25:48.453Z,0.97
2023-04-12T18:28:18.017Z,1.00
2023-04-12T18:30:46.300Z,0.90
2023-04-12T18:33:16.937Z,0.90
2023-04-12T18:35:45.219Z,1.10
2023-04-12T18:38:13.545Z,0.90
2023-04-12T18:40:41.824Z,1.10
2023-04-12T18:43:10.222Z,1.13
2023-04-12T18:45:41.018Z,1.60
2023-04-12T18:48:09.997Z,1.00
2023-04-12T18:50:40.160Z,0.90
2023-04-12T18:53:08.816Z,1.10
2023-04-12T18:55:37.221Z,1.20
2023-04-12T18:58:05.727Z,1.57
2023-04-12T19:00:34.691Z,1.27
2023-04-12T19:03:02.832Z,1.10
2023-04-12T19:05:31.124Z,1.43
2023-04-12T19:08:01.655Z,1.40
2023-04-12T19:10:33.355Z,1.73
2023-04-12T19:13:02.339Z,1.67
2023-04-12T19:15:32.012Z,1.80
2023-04-12T19:18:01.842Z,2.30
2023-04-12T19:20:30.278Z,2.00
2023-04-12T19:22:58.596Z,2.20
2023-04-12T19:25:31.683Z,2.00
2023-04-12T19:28:00.636Z,2.00
2023-04-12T19:30:30.782Z,1.90
2023-04-12T19:32:59.829Z,1.80
2023-04-12T19:35:32.830Z,1.97
2023-04-12T19:38:01.132Z,1.90
2023-04-12T19:40:31.391Z,2.00
2023-04-12T19:42:59.451Z,2.10
2023-04-12T19:45:28.080Z,2.40
2023-04-12T19:47:56.480Z,4.10
2023-04-12T19:50:25.161Z,3.00
2023-04-12T19:52:53.205Z,3.47
2023-04-12T19:55:21.723Z,4.07
2023-04-12T19:57:52.207Z,3.40
2023-04-12T20:00:22.857Z,3.97
2023-04-12T20:02:52.193Z,3.50
2023-04-12T20:05:22.506Z,3.60
2023-04-12T20:07:52.808Z,3.47
2023-04-12T20:10:21.203Z,3.60
2023-04-12T20:12:50.820Z,3.63
2023-04-12T20:15:19.689Z,4.03
2023-04-12T20:17:48.629Z,2.80
2023-04-12T20:20:17.534Z,2.90
2023-04-12T20:22:47.993Z,2.10
2023-04-12T20:25:16.699Z,1.93
2023-04-12T20:27:51.693Z,2.00
2023-04-12T20:30:23.074Z,1.90
2023-04-12T20:32:54.748Z,1.80
2023-04-12T20:35:24.839Z,2.57
2023-04-12T20:37:53.325Z,2.20
2023-04-12T20:40:23.389Z,2.60
2023-04-12T20:42:52.051Z,2.90
2023-04-12T20:45:23.478Z,2.53
2023-04-12T20:47:52.162Z,2.20
2023-04-12T20:50:23.144Z,2.20
2023-04-12T20:52:52.429Z,2.43
2023-04-12T20:55:22.764Z,2.10
2023-04-12T20:57:50.765Z,2.20
2023-04-12T21:00:23.871Z,2.40
2023-04-12T21:02:55.042Z,2.53
2023-04-12T21:05:23.395Z,3.23
2023-04-12T21:07:52.054Z,2.50
2023-04-12T21:10:20.443Z,2.73
2023-04-12T21:12:48.477Z,2.70
2023-04-12T21:15:22.108Z,2.00
2023-04-12T21:17:54.255Z,2.30
2023-04-12T21:20:24.809Z,1.70
2023-04-12T21:22:53.805Z,1.40
2023-04-12T21:25:23.404Z,1.33
2023-04-12T21:27:51.621Z,1.30
2023-04-12T21:30:21.176Z,1.20
2023-04-12T21:32:51.898Z,1.20
2023-04-12T21:35:22.965Z,1.27
2023-04-12T21:37:53.234Z,1.30
2023-04-12T21:40:21.408Z,0.93
2023-04-12T21:42:51.047Z,1.07
2023-04-12T21:45:19.720Z,1.27
2023-04-12T21:47:47.857Z,0.90
2023-04-12T21:50:16.110Z,1.00
2023-04-12T21:52:45.944Z,0.93
2023-04-12T21:55:16.145Z,1.10
2023-04-12T21:57:44.739Z,1.00
2023-04-12T22:00:14.180Z,0.97
2023-04-12T22:02:42.724Z,0.90
2023-04-12T22:05:11.972Z,0.90
2023-04-12T22:07:41.720Z,1.00
2023-04-12T22:10:12.258Z,1.10
2023-04-12T22:12:42.462Z,1.20
2023-04-12T22:15:13.782Z,0.83
2023-04-12T22:17:42.033Z,0.90
2023-04-12T22:20:11.175Z,0.90
2023-04-12T22:22:39.403Z,0.80
2023-04-12T22:25:12.183Z,0.90
2023-04-12T22:27:42.271Z,0.80
2023-04-12T22:30:12.009Z,0.70
2023-04-12T22:32:40.668Z,0.80
2023-04-12T22:35:10.375Z,0.93
2023-04-12T22:37:39.115Z,0.80
2023-04-12T22:40:11.905Z,0.90
2023-04-12T22:42:46.948Z,0.90
2023-04-12T22:45:16.090Z,1.00
2023-04-12T22:47:44.351Z,0.50
2023-04-12T22:50:13.395Z,0.60
2023-04-12T22:52:42.199Z,0.83
2023-04-12T22:55:13.160Z,0.70
2023-04-12T22:57:43.712Z,0.70
2023-04-12T23:00:16.801Z,0.70
2023-04-12T23:02:46.763Z,0.70
2023-04-12T23:05:16.611Z,0.80
2023-04-12T23:07:44.871Z,0.70
2023-04-12T23:10:13.415Z,0.70
2023-04-12T23:12:43.167Z,0.90
2023-04-12T23:15:12.866Z,0.50
2023-04-12T23:17:41.135Z,0.70
2023-04-12T23:20:13.374Z,0.80
2023-04-12T23:22:57.236Z,1.00
2023-04-12T23:25:29.238Z,0.70
2023-04-12T23:27:59.051Z,0.90
2023-04-12T23:30:29.944Z,1.00
2023-04-12T23:32:58.601Z,0.90
2023-04-12T23:35:28.000Z,0.93
2023-04-12T23:37:56.326Z,0.70
2023-04-12T23:40:25.260Z,0.90
2023-04-12T23:42:53.338Z,1.00
2023-04-12T23:45:22.897Z,1.00
2023-04-12T23:47:51.252Z,0.80
2023-04-12T23:50:19.589Z,1.20
2023-04-12T23:52:47.851Z,0.60
2023-04-12T23:55:16.869Z,0.80
2023-04-12T23:57:45.097Z,0.90
